sensor_id;sensor_type;location;lat;lon;timestamp;temperature;humidity
72865;DHT22;61000;48.120;11.548;2023-11-22T00:02:16;6.50;99.90
72865;DHT22;61000;48.120;11.548;2023-11-22T00:04:43;6.50;99.90
72865;DHT22;61000;48.120;11.548;2023-11-22T00:07:10;6.50;99.90
72865;DHT22;61000;48.120;11.548;2023-11-22T00:09:38;6.50;99.90
72865;DHT22;61000;48.120;11.548;2023-11-22T00:12:07;6.50;99.90
72865;DHT22;61000;48.120;11.548;2023-11-22T00:14:35;6.40;99.90
72865;DHT22;61000;48.120;11.548;2023-11-22T00:17:02;6.40;99.90
72865;DHT22;61000;48.120;11.548;2023-11-22T00:19:29;6.40;99.90
72865;DHT22;61000;48.120;11.548;2023-11-22T00:21:56;6.40;99.90
72865;DHT22;61000;48.120;11.548;2023-11-22T00:24:23;6.40;99.90
72865;DHT22;61000;48.120;11.548;2023-11-22T00:26:51;6.40;99.90
72865;DHT22;61000;48.120;11.548;2023-11-22T00:29:18;6.40;99.90
72865;DHT22;61000;48.120;11.548;2023-11-22T00:31:45;6.30;99.90
72865;DHT22;61000;48.120;11.548;2023-11-22T00:34:12;6.40;99.90
72865;DHT22;61000;48.120;11.548;2023-11-22T00:36:39;6.40;99.90
72865;DHT22;61000;48.120;11.548;2023-11-22T00:39:06;6.40;99.90
72865;DHT22;61000;48.120;11.548;2023-11-22T00:41:33;6.40;99.90
72865;DHT22;61000;48.120;11.548;2023-11-22T00:44:03;6.40;99.90
72865;DHT22;61000;48.120;11.548;2023-11-22T00:46:31;6.30;99.90
72865;DHT22;61000;48.120;11.548;2023-11-22T00:48:58;6.30;99.90
72865;DHT22;61000;48.120;11.548;2023-11-22T00:51:25;6.30;99.90
72865;DHT22;61000;48.120;11.548;2023-11-22T00:53:52;6.40;99.90
72865;DHT22;61000;48.120;11.548;2023-11-22T00:56:20;6.40;99.90
72865;DHT22;61000;48.120;11.548;2023-11-22T00:58:47;6.30;99.90
72865;DHT22;61000;48.120;11.548;2023-11-22T01:01:17;6.30;99.90
72865;DHT22;61000;48.120;11.548;2023-11-22T01:03:44;6.40;99.90
72865;DHT22;61000;48.120;11.548;2023-11-22T01:06:13;6.30;99.90
72865;DHT22;61000;48.120;11.548;2023-11-22T01:08:40;6.30;99.90
72865;DHT22;61000;48.120;11.548;2023-11-22T01:11:07;6.30;99.90
72865;DHT22;61000;48.120;11.548;2023-11-22T01:13:34;6.30;99.90
72865;DHT22;61000;48.120;11.548;2023-11-22T01:16:06;6.40;99.90
72865;DHT22;61000;48.120;11.548;2023-11-22T01:18:34;6.30;99.90
72865;DHT22;61000;48.120;11.548;2023-11-22T01:21:01;6.30;99.90
72865;DHT22;61000;48.120;11.548;2023-11-22T01:23:29;6.30;99.90
72865;DHT22;61000;48.120;11.548;2023-11-22T01:25:57;6.30;99.90
72865;DHT22;61000;48.120;11.548;2023-11-22T01:28:25;6.20;99.90
72865;DHT22;61000;48.120;11.548;2023-11-22T01:30:52;6.20;99.90
72865;DHT22;61000;48.120;11.548;2023-11-22T01:33:20;6.20;99.90
72865;DHT22;61000;48.120;11.548;2023-11-22T01:35:48;6.20;99.90
72865;DHT22;61000;48.120;11.548;2023-11-22T01:38:16;6.20;99.90
72865;DHT22;61000;48.120;11.548;2023-11-22T01:40:44;6.20;99.90
72865;DHT22;61000;48.120;11.548;2023-11-22T01:43:13;6.20;99.90
72865;DHT22;61000;48.120;11.548;2023-11-22T01:45:41;6.20;99.90
72865;DHT22;61000;48.120;11.548;2023-11-22T01:48:09;6.20;99.90
72865;DHT22;61000;48.120;11.548;2023-11-22T01:50:37;6.20;99.90
72865;DHT22;61000;48.120;11.548;2023-11-22T01:53:08;6.20;99.90
72865;DHT22;61000;48.120;11.548;2023-11-22T01:55:35;6.30;99.90
72865;DHT22;61000;48.120;11.548;2023-11-22T01:58:03;6.20;99.90
72865;DHT22;61000;48.120;11.548;2023-11-22T02:00:32;6.20;99.90
72865;DHT22;61000;48.120;11.548;2023-11-22T02:03:02;6.20;99.90
72865;DHT22;61000;48.120;11.548;2023-11-22T02:05:29;6.20;99.90
72865;DHT22;61000;48.120;11.548;2023-11-22T02:07:57;6.10;99.90
72865;DHT22;61000;48.120;11.548;2023-11-22T02:10:25;6.20;99.90
72865;DHT22;61000;48.120;11.548;2023-11-22T02:12:52;6.20;99.90
72865;DHT22;61000;48.120;11.548;2023-11-22T02:15:19;6.10;99.90
72865;DHT22;61000;48.120;11.548;2023-11-22T02:17:46;6.00;99.90
72865;DHT22;61000;48.120;11.548;2023-11-22T02:20:13;5.80;99.90
72865;DHT22;61000;48.120;11.548;2023-11-22T02:22:44;5.70;99.90
72865;DHT22;61000;48.120;11.548;2023-11-22T02:25:13;5.30;99.90
72865;DHT22;61000;48.120;11.548;2023-11-22T02:27:40;4.90;99.90
72865;DHT22;61000;48.120;11.548;2023-11-22T02:30:08;4.60;99.90
72865;DHT22;61000;48.120;11.548;2023-11-22T02:32:36;4.50;99.90
72865;DHT22;61000;48.120;11.548;2023-11-22T02:35:04;4.30;99.90
72865;DHT22;61000;48.120;11.548;2023-11-22T02:37:33;4.20;99.90
72865;DHT22;61000;48.120;11.548;2023-11-22T02:40:04;4.10;99.90
72865;DHT22;61000;48.120;11.548;2023-11-22T02:42:33;4.00;99.90
72865;DHT22;61000;48.120;11.548;2023-11-22T02:45:00;3.90;99.90
72865;DHT22;61000;48.120;11.548;2023-11-22T02:47:27;3.90;99.90
72865;DHT22;61000;48.120;11.548;2023-11-22T02:49:55;3.80;99.90
72865;DHT22;61000;48.120;11.548;2023-11-22T02:52:22;3.80;99.90
72865;DHT22;61000;48.120;11.548;2023-11-22T02:54:49;3.80;99.90
72865;DHT22;61000;48.120;11.548;2023-11-22T02:57:16;3.70;99.90
72865;DHT22;61000;48.120;11.548;2023-11-22T02:59:44;3.60;99.90
72865;DHT22;61000;48.120;11.548;2023-11-22T03:02:12;3.60;99.90
72865;DHT22;61000;48.120;11.548;2023-11-22T03:04:40;3.50;99.90
72865;DHT22;61000;48.120;11.548;2023-11-22T03:07:07;3.50;99.90
72865;DHT22;61000;48.120;11.548;2023-11-22T03:09:33;3.50;99.90
72865;DHT22;61000;48.120;11.548;2023-11-22T03:12:00;3.50;99.90
72865;DHT22;61000;48.120;11.548;2023-11-22T03:14:28;3.30;99.90
72865;DHT22;61000;48.120;11.548;2023-11-22T03:16:57;3.20;99.90
72865;DHT22;61000;48.120;11.548;2023-11-22T03:19:24;3.20;99.90
72865;DHT22;61000;48.120;11.548;2023-11-22T03:21:51;3.10;99.90
72865;DHT22;61000;48.120;11.548;2023-11-22T03:24:18;3.10;99.90
72865;DHT22;61000;48.120;11.548;2023-11-22T03:26:44;3.00;99.90
72865;DHT22;61000;48.120;11.548;2023-11-22T03:29:14;3.00;99.90
72865;DHT22;61000;48.120;11.548;2023-11-22T03:31:42;3.00;99.90
72865;DHT22;61000;48.120;11.548;2023-11-22T03:34:10;3.00;99.90
72865;DHT22;61000;48.120;11.548;2023-11-22T03:36:37;3.00;99.90
72865;DHT22;61000;48.120;11.548;2023-11-22T03:39:04;3.00;99.90
72865;DHT22;61000;48.120;11.548;2023-11-22T03:41:33;2.90;99.90
72865;DHT22;61000;48.120;11.548;2023-11-22T03:43:59;3.00;99.90
72865;DHT22;61000;48.120;11.548;2023-11-22T03:46:27;3.00;99.90
72865;DHT22;61000;48.120;11.548;2023-11-22T03:48:54;2.90;99.90
72865;DHT22;61000;48.120;11.548;2023-11-22T03:51:22;3.00;99.90
72865;DHT22;61000;48.120;11.548;2023-11-22T03:53:49;3.00;99.90
72865;DHT22;61000;48.120;11.548;2023-11-22T03:56:16;3.00;99.90
72865;DHT22;61000;48.120;11.548;2023-11-22T03:58:43;3.00;99.90
72865;DHT22;61000;48.120;11.548;2023-11-22T04:01:10;3.10;99.90
72865;DHT22;61000;48.120;11.548;2023-11-22T04:03:36;3.00;99.90
72865;DHT22;61000;48.120;11.548;2023-11-22T04:06:03;3.00;99.90
72865;DHT22;61000;48.120;11.548;2023-11-22T04:08:32;3.00;99.90
72865;DHT22;61000;48.120;11.548;2023-11-22T04:10:59;3.10;99.90
72865;DHT22;61000;48.120;11.548;2023-11-22T04:13:25;3.10;99.90
72865;DHT22;61000;48.120;11.548;2023-11-22T04:15:52;3.10;99.90
72865;DHT22;61000;48.120;11.548;2023-11-22T04:18:19;3.10;99.90
72865;DHT22;61000;48.120;11.548;2023-11-22T04:20:46;3.10;99.90
72865;DHT22;61000;48.120;11.548;2023-11-22T04:23:13;3.10;99.90
72865;DHT22;61000;48.120;11.548;2023-11-22T04:25:42;3.10;99.90
72865;DHT22;61000;48.120;11.548;2023-11-22T04:28:09;3.20;99.90
72865;DHT22;61000;48.120;11.548;2023-11-22T04:30:36;3.10;99.90
72865;DHT22;61000;48.120;11.548;2023-11-22T04:33:03;3.10;99.90
72865;DHT22;61000;48.120;11.548;2023-11-22T04:35:30;3.10;99.90
72865;DHT22;61000;48.120;11.548;2023-11-22T04:37:59;3.10;99.90
72865;DHT22;61000;48.120;11.548;2023-11-22T04:40:26;3.10;99.90
72865;DHT22;61000;48.120;11.548;2023-11-22T04:42:54;3.20;99.90
72865;DHT22;61000;48.120;11.548;2023-11-22T04:45:21;3.20;99.90
72865;DHT22;61000;48.120;11.548;2023-11-22T04:47:48;3.20;99.90
72865;DHT22;61000;48.120;11.548;2023-11-22T04:50:15;3.20;99.90
72865;DHT22;61000;48.120;11.548;2023-11-22T04:52:43;3.20;99.90
72865;DHT22;61000;48.120;11.548;2023-11-22T04:55:10;3.20;99.90
72865;DHT22;61000;48.120;11.548;2023-11-22T04:57:37;3.20;99.90
72865;DHT22;61000;48.120;11.548;2023-11-22T05:00:08;3.20;99.90
72865;DHT22;61000;48.120;11.548;2023-11-22T05:02:35;3.20;99.90
72865;DHT22;61000;48.120;11.548;2023-11-22T05:05:02;3.20;99.90
72865;DHT22;61000;48.120;11.548;2023-11-22T05:07:29;3.20;99.90
72865;DHT22;61000;48.120;11.548;2023-11-22T05:09:56;3.20;99.90
72865;DHT22;61000;48.120;11.548;2023-11-22T05:12:23;3.20;99.90
72865;DHT22;61000;48.120;11.548;2023-11-22T05:14:49;3.20;99.90
72865;DHT22;61000;48.120;11.548;2023-11-22T05:17:18;3.20;99.90
72865;DHT22;61000;48.120;11.548;2023-11-22T05:19:45;3.20;99.90
72865;DHT22;61000;48.120;11.548;2023-11-22T05:22:12;3.20;99.90
72865;DHT22;61000;48.120;11.548;2023-11-22T05:24:39;3.20;99.90
72865;DHT22;61000;48.120;11.548;2023-11-22T05:27:07;3.30;99.90
72865;DHT22;61000;48.120;11.548;2023-11-22T05:29:34;3.20;99.90
72865;DHT22;61000;48.120;11.548;2023-11-22T05:32:01;3.20;99.90
72865;DHT22;61000;48.120;11.548;2023-11-22T05:34:29;3.20;99.90
72865;DHT22;61000;48.120;11.548;2023-11-22T05:36:56;3.20;99.90
72865;DHT22;61000;48.120;11.548;2023-11-22T05:39:23;3.30;99.90
72865;DHT22;61000;48.120;11.548;2023-11-22T05:41:50;3.20;99.90
72865;DHT22;61000;48.120;11.548;2023-11-22T05:44:17;3.20;99.90
72865;DHT22;61000;48.120;11.548;2023-11-22T05:46:44;3.20;99.90
72865;DHT22;61000;48.120;11.548;2023-11-22T05:49:11;3.20;99.90
72865;DHT22;61000;48.120;11.548;2023-11-22T05:51:39;3.20;99.90
72865;DHT22;61000;48.120;11.548;2023-11-22T05:54:06;3.20;99.90
72865;DHT22;61000;48.120;11.548;2023-11-22T05:56:33;3.10;99.90
72865;DHT22;61000;48.120;11.548;2023-11-22T05:59:00;3.10;99.90
72865;DHT22;61000;48.120;11.548;2023-11-22T06:01:27;3.20;99.90
72865;DHT22;61000;48.120;11.548;2023-11-22T06:03:54;3.10;99.90
72865;DHT22;61000;48.120;11.548;2023-11-22T06:06:21;3.10;99.90
72865;DHT22;61000;48.120;11.548;2023-11-22T06:08:49;3.20;99.90
72865;DHT22;61000;48.120;11.548;2023-11-22T06:11:16;3.20;99.90
72865;DHT22;61000;48.120;11.548;2023-11-22T06:13:43;3.10;99.90
72865;DHT22;61000;48.120;11.548;2023-11-22T06:16:11;3.10;99.90
72865;DHT22;61000;48.120;11.548;2023-11-22T06:18:38;3.10;99.90
72865;DHT22;61000;48.120;11.548;2023-11-22T06:21:06;3.10;99.90
72865;DHT22;61000;48.120;11.548;2023-11-22T06:23:33;3.00;99.90
72865;DHT22;61000;48.120;11.548;2023-11-22T06:26:01;3.10;99.90
72865;DHT22;61000;48.120;11.548;2023-11-22T06:28:28;3.10;99.90
72865;DHT22;61000;48.120;11.548;2023-11-22T06:30:55;3.00;99.90
72865;DHT22;61000;48.120;11.548;2023-11-22T06:33:23;3.10;99.90
72865;DHT22;61000;48.120;11.548;2023-11-22T06:35:50;3.00;99.90
72865;DHT22;61000;48.120;11.548;2023-11-22T06:38:16;3.00;99.90
72865;DHT22;61000;48.120;11.548;2023-11-22T06:40:43;2.90;99.90
72865;DHT22;61000;48.120;11.548;2023-11-22T06:43:12;3.00;99.90
72865;DHT22;61000;48.120;11.548;2023-11-22T06:45:39;3.00;99.90
72865;DHT22;61000;48.120;11.548;2023-11-22T06:48:07;3.00;99.90
72865;DHT22;61000;48.120;11.548;2023-11-22T06:50:34;3.00;99.90
72865;DHT22;61000;48.120;11.548;2023-11-22T06:53:01;3.00;99.90
72865;DHT22;61000;48.120;11.548;2023-11-22T06:55:29;3.00;99.90
72865;DHT22;61000;48.120;11.548;2023-11-22T06:57:56;3.00;99.90
72865;DHT22;61000;48.120;11.548;2023-11-22T07:00:24;3.00;99.90
72865;DHT22;61000;48.120;11.548;2023-11-22T07:02:53;3.10;99.90
72865;DHT22;61000;48.120;11.548;2023-11-22T07:05:20;3.10;99.90
72865;DHT22;61000;48.120;11.548;2023-11-22T07:07:46;3.00;99.90
72865;DHT22;61000;48.120;11.548;2023-11-22T07:10:14;3.00;99.90
72865;DHT22;61000;48.120;11.548;2023-11-22T07:12:41;3.00;99.90
72865;DHT22;61000;48.120;11.548;2023-11-22T07:15:09;3.00;99.90
72865;DHT22;61000;48.120;11.548;2023-11-22T07:17:38;3.00;99.90
72865;DHT22;61000;48.120;11.548;2023-11-22T07:20:06;3.00;99.90
72865;DHT22;61000;48.120;11.548;2023-11-22T07:22:35;3.00;99.90
72865;DHT22;61000;48.120;11.548;2023-11-22T07:25:02;3.00;99.90
72865;DHT22;61000;48.120;11.548;2023-11-22T07:27:29;3.10;99.90
72865;DHT22;61000;48.120;11.548;2023-11-22T07:29:57;3.20;99.90
72865;DHT22;61000;48.120;11.548;2023-11-22T07:32:24;3.20;99.90
72865;DHT22;61000;48.120;11.548;2023-11-22T07:34:52;3.10;99.90
72865;DHT22;61000;48.120;11.548;2023-11-22T07:37:21;3.20;99.90
72865;DHT22;61000;48.120;11.548;2023-11-22T07:39:49;3.10;99.90
72865;DHT22;61000;48.120;11.548;2023-11-22T07:42:16;3.10;99.90
72865;DHT22;61000;48.120;11.548;2023-11-22T07:44:43;3.10;99.90
72865;DHT22;61000;48.120;11.548;2023-11-22T07:47:11;3.10;99.90
72865;DHT22;61000;48.120;11.548;2023-11-22T07:49:38;3.10;99.90
72865;DHT22;61000;48.120;11.548;2023-11-22T07:52:08;3.10;99.90
72865;DHT22;61000;48.120;11.548;2023-11-22T07:54:39;3.10;99.90
72865;DHT22;61000;48.120;11.548;2023-11-22T07:57:06;3.10;99.90
72865;DHT22;61000;48.120;11.548;2023-11-22T07:59:33;3.10;99.90
72865;DHT22;61000;48.120;11.548;2023-11-22T08:02:00;3.10;99.90
72865;DHT22;61000;48.120;11.548;2023-11-22T08:04:28;3.10;99.90
72865;DHT22;61000;48.120;11.548;2023-11-22T08:06:57;3.10;99.90
72865;DHT22;61000;48.120;11.548;2023-11-22T08:09:26;3.10;99.90
72865;DHT22;61000;48.120;11.548;2023-11-22T08:11:56;3.20;99.90
72865;DHT22;61000;48.120;11.548;2023-11-22T08:14:23;3.20;99.90
72865;DHT22;61000;48.120;11.548;2023-11-22T08:16:53;3.20;99.90
72865;DHT22;61000;48.120;11.548;2023-11-22T08:19:20;3.20;99.90
72865;DHT22;61000;48.120;11.548;2023-11-22T08:21:47;3.10;99.90
72865;DHT22;61000;48.120;11.548;2023-11-22T08:24:15;3.10;99.90
72865;DHT22;61000;48.120;11.548;2023-11-22T08:26:43;3.10;99.90
72865;DHT22;61000;48.120;11.548;2023-11-22T08:29:10;3.00;99.90
72865;DHT22;61000;48.120;11.548;2023-11-22T08:31:37;3.00;99.90
72865;DHT22;61000;48.120;11.548;2023-11-22T08:34:04;3.00;99.90
72865;DHT22;61000;48.120;11.548;2023-11-22T08:36:32;3.00;99.90
72865;DHT22;61000;48.120;11.548;2023-11-22T08:39:00;3.00;99.90
72865;DHT22;61000;48.120;11.548;2023-11-22T08:41:27;2.90;99.90
72865;DHT22;61000;48.120;11.548;2023-11-22T08:43:57;2.90;99.90
72865;DHT22;61000;48.120;11.548;2023-11-22T08:46:23;2.90;99.90
72865;DHT22;61000;48.120;11.548;2023-11-22T08:48:50;3.00;99.90
72865;DHT22;61000;48.120;11.548;2023-11-22T08:51:17;2.90;99.90
72865;DHT22;61000;48.120;11.548;2023-11-22T08:53:44;2.90;99.90
72865;DHT22;61000;48.120;11.548;2023-11-22T08:56:11;2.80;99.90
72865;DHT22;61000;48.120;11.548;2023-11-22T08:58:38;2.80;99.90
72865;DHT22;61000;48.120;11.548;2023-11-22T09:01:06;2.80;99.90
72865;DHT22;61000;48.120;11.548;2023-11-22T09:03:34;2.80;99.90
72865;DHT22;61000;48.120;11.548;2023-11-22T09:06:01;2.80;99.90
72865;DHT22;61000;48.120;11.548;2023-11-22T09:08:28;2.80;99.90
72865;DHT22;61000;48.120;11.548;2023-11-22T09:10:55;2.80;99.90
72865;DHT22;61000;48.120;11.548;2023-11-22T09:13:22;2.80;99.90
72865;DHT22;61000;48.120;11.548;2023-11-22T09:15:50;2.80;99.90
72865;DHT22;61000;48.120;11.548;2023-11-22T09:18:18;2.80;99.90
72865;DHT22;61000;48.120;11.548;2023-11-22T09:20:47;2.80;99.90
72865;DHT22;61000;48.120;11.548;2023-11-22T09:23:14;2.90;99.90
72865;DHT22;61000;48.120;11.548;2023-11-22T09:25:41;2.80;99.90
72865;DHT22;61000;48.120;11.548;2023-11-22T09:28:08;2.80;99.90
72865;DHT22;61000;48.120;11.548;2023-11-22T09:30:35;2.80;99.90
72865;DHT22;61000;48.120;11.548;2023-11-22T09:33:05;2.90;99.90
72865;DHT22;61000;48.120;11.548;2023-11-22T09:35:34;2.90;99.90
72865;DHT22;61000;48.120;11.548;2023-11-22T09:38:02;2.90;99.90
72865;DHT22;61000;48.120;11.548;2023-11-22T09:40:30;2.80;99.90
72865;DHT22;61000;48.120;11.548;2023-11-22T09:42:58;2.70;99.90
72865;DHT22;61000;48.120;11.548;2023-11-22T09:45:26;2.70;99.90
72865;DHT22;61000;48.120;11.548;2023-11-22T09:47:53;2.70;99.90
72865;DHT22;61000;48.120;11.548;2023-11-22T09:50:29;2.80;99.90
72865;DHT22;61000;48.120;11.548;2023-11-22T09:53:02;2.70;99.90
72865;DHT22;61000;48.120;11.548;2023-11-22T09:55:35;2.60;99.90
72865;DHT22;61000;48.120;11.548;2023-11-22T09:58:03;2.50;99.90
72865;DHT22;61000;48.120;11.548;2023-11-22T10:00:32;2.60;99.90
72865;DHT22;61000;48.120;11.548;2023-11-22T10:02:58;2.70;99.90
72865;DHT22;61000;48.120;11.548;2023-11-22T10:05:26;2.60;99.90
72865;DHT22;61000;48.120;11.548;2023-11-22T10:07:54;2.60;99.90
72865;DHT22;61000;48.120;11.548;2023-11-22T10:10:22;2.60;99.90
72865;DHT22;61000;48.120;11.548;2023-11-22T10:12:54;2.60;99.90
72865;DHT22;61000;48.120;11.548;2023-11-22T10:15:22;2.60;99.90
72865;DHT22;61000;48.120;11.548;2023-11-22T10:17:55;2.60;99.90
72865;DHT22;61000;48.120;11.548;2023-11-22T10:20:23;2.60;99.90
72865;DHT22;61000;48.120;11.548;2023-11-22T10:22:51;2.50;99.90
72865;DHT22;61000;48.120;11.548;2023-11-22T10:25:20;2.60;99.90
72865;DHT22;61000;48.120;11.548;2023-11-22T10:27:49;2.60;99.90
72865;DHT22;61000;48.120;11.548;2023-11-22T10:30:18;2.60;99.90
72865;DHT22;61000;48.120;11.548;2023-11-22T10:32:45;2.60;99.90
72865;DHT22;61000;48.120;11.548;2023-11-22T10:35:12;2.70;99.90
72865;DHT22;61000;48.120;11.548;2023-11-22T10:37:41;2.70;99.90
72865;DHT22;61000;48.120;11.548;2023-11-22T10:40:12;2.70;99.90
72865;DHT22;61000;48.120;11.548;2023-11-22T10:42:40;2.80;99.90
72865;DHT22;61000;48.120;11.548;2023-11-22T10:45:10;2.80;99.90
72865;DHT22;61000;48.120;11.548;2023-11-22T10:47:38;2.90;99.90
72865;DHT22;61000;48.120;11.548;2023-11-22T10:50:09;2.90;99.90
72865;DHT22;61000;48.120;11.548;2023-11-22T10:52:41;3.00;99.90
72865;DHT22;61000;48.120;11.548;2023-11-22T10:55:11;3.00;99.90
72865;DHT22;61000;48.120;11.548;2023-11-22T10:57:44;3.00;99.90
72865;DHT22;61000;48.120;11.548;2023-11-22T11:00:15;3.10;99.90
72865;DHT22;61000;48.120;11.548;2023-11-22T11:02:45;3.10;99.90
72865;DHT22;61000;48.120;11.548;2023-11-22T11:05:16;3.10;99.90
72865;DHT22;61000;48.120;11.548;2023-11-22T11:07:49;3.20;99.90
72865;DHT22;61000;48.120;11.548;2023-11-22T11:10:20;3.20;99.90
72865;DHT22;61000;48.120;11.548;2023-11-22T11:12:48;3.20;99.90
72865;DHT22;61000;48.120;11.548;2023-11-22T11:15:17;3.20;99.90
72865;DHT22;61000;48.120;11.548;2023-11-22T11:17:45;3.30;99.90
72865;DHT22;61000;48.120;11.548;2023-11-22T11:20:16;3.30;99.90
72865;DHT22;61000;48.120;11.548;2023-11-22T11:22:44;3.30;99.90
72865;DHT22;61000;48.120;11.548;2023-11-22T11:25:15;3.20;99.90
72865;DHT22;61000;48.120;11.548;2023-11-22T11:27:44;3.30;99.90
72865;DHT22;61000;48.120;11.548;2023-11-22T11:30:41;3.30;99.90
72865;DHT22;61000;48.120;11.548;2023-11-22T11:33:10;3.30;99.90
72865;DHT22;61000;48.120;11.548;2023-11-22T11:35:38;3.50;99.90
72865;DHT22;61000;48.120;11.548;2023-11-22T11:38:05;3.50;99.90
72865;DHT22;61000;48.120;11.548;2023-11-22T11:40:35;3.40;99.90
72865;DHT22;61000;48.120;11.548;2023-11-22T11:43:04;3.40;99.90
72865;DHT22;61000;48.120;11.548;2023-11-22T11:45:36;3.40;99.90
72865;DHT22;61000;48.120;11.548;2023-11-22T11:48:06;3.40;99.90
72865;DHT22;61000;48.120;11.548;2023-11-22T11:50:33;3.50;99.90
72865;DHT22;61000;48.120;11.548;2023-11-22T11:53:00;3.50;99.90
72865;DHT22;61000;48.120;11.548;2023-11-22T11:55:28;3.40;99.90
72865;DHT22;61000;48.120;11.548;2023-11-22T11:57:55;3.40;99.90
72865;DHT22;61000;48.120;11.548;2023-11-22T12:00:22;3.50;99.90
72865;DHT22;61000;48.120;11.548;2023-11-22T12:02:50;3.40;99.90
72865;DHT22;61000;48.120;11.548;2023-11-22T12:05:20;3.50;99.90
72865;DHT22;61000;48.120;11.548;2023-11-22T12:07:47;3.60;99.90
72865;DHT22;61000;48.120;11.548;2023-11-22T12:10:14;3.60;99.90
72865;DHT22;61000;48.120;11.548;2023-11-22T12:12:43;3.60;99.90
72865;DHT22;61000;48.120;11.548;2023-11-22T12:15:12;3.60;99.90
72865;DHT22;61000;48.120;11.548;2023-11-22T12:17:40;3.50;99.90
72865;DHT22;61000;48.120;11.548;2023-11-22T12:20:11;3.50;99.90
72865;DHT22;61000;48.120;11.548;2023-11-22T12:22:41;3.60;99.90
72865;DHT22;61000;48.120;11.548;2023-11-22T12:25:09;3.50;99.90
72865;DHT22;61000;48.120;11.548;2023-11-22T12:27:42;3.50;99.90
72865;DHT22;61000;48.120;11.548;2023-11-22T12:30:16;3.50;99.90
72865;DHT22;61000;48.120;11.548;2023-11-22T12:32:54;3.50;99.90
72865;DHT22;61000;48.120;11.548;2023-11-22T12:35:22;3.50;99.90
72865;DHT22;61000;48.120;11.548;2023-11-22T12:37:50;3.50;99.90
72865;DHT22;61000;48.120;11.548;2023-11-22T12:40:20;3.40;99.90
72865;DHT22;61000;48.120;11.548;2023-11-22T12:42:48;3.40;99.90
72865;DHT22;61000;48.120;11.548;2023-11-22T12:45:19;3.30;99.90
72865;DHT22;61000;48.120;11.548;2023-11-22T12:47:47;3.30;99.90
72865;DHT22;61000;48.120;11.548;2023-11-22T12:50:33;3.20;99.90
72865;DHT22;61000;48.120;11.548;2023-11-22T12:53:11;3.30;99.90
72865;DHT22;61000;48.120;11.548;2023-11-22T12:55:42;3.20;99.90
72865;DHT22;61000;48.120;11.548;2023-11-22T12:58:10;3.20;99.90
72865;DHT22;61000;48.120;11.548;2023-11-22T13:00:38;3.20;99.90
72865;DHT22;61000;48.120;11.548;2023-11-22T13:03:06;3.30;99.90
72865;DHT22;61000;48.120;11.548;2023-11-22T13:05:33;3.20;99.90
72865;DHT22;61000;48.120;11.548;2023-11-22T13:08:00;3.20;99.90
72865;DHT22;61000;48.120;11.548;2023-11-22T13:10:30;3.20;99.90
72865;DHT22;61000;48.120;11.548;2023-11-22T13:12:57;3.20;99.90
72865;DHT22;61000;48.120;11.548;2023-11-22T13:15:24;3.20;99.90
72865;DHT22;61000;48.120;11.548;2023-11-22T13:17:52;3.20;99.90
72865;DHT22;61000;48.120;11.548;2023-11-22T13:20:22;3.30;99.90
72865;DHT22;61000;48.120;11.548;2023-11-22T13:22:49;3.30;99.90
72865;DHT22;61000;48.120;11.548;2023-11-22T13:25:16;3.30;99.90
72865;DHT22;61000;48.120;11.548;2023-11-22T13:27:46;3.30;99.90
72865;DHT22;61000;48.120;11.548;2023-11-22T13:30:13;3.30;99.90
72865;DHT22;61000;48.120;11.548;2023-11-22T13:32:41;3.30;99.90
72865;DHT22;61000;48.120;11.548;2023-11-22T13:35:09;3.30;99.90
72865;DHT22;61000;48.120;11.548;2023-11-22T13:37:41;3.30;99.90
72865;DHT22;61000;48.120;11.548;2023-11-22T13:40:10;3.30;99.90
72865;DHT22;61000;48.120;11.548;2023-11-22T13:42:41;3.30;99.90
72865;DHT22;61000;48.120;11.548;2023-11-22T13:45:11;3.30;99.90
72865;DHT22;61000;48.120;11.548;2023-11-22T13:47:42;3.30;99.90
72865;DHT22;61000;48.120;11.548;2023-11-22T13:50:10;3.30;99.90
72865;DHT22;61000;48.120;11.548;2023-11-22T13:52:37;3.40;99.90
72865;DHT22;61000;48.120;11.548;2023-11-22T13:55:05;3.40;99.90
72865;DHT22;61000;48.120;11.548;2023-11-22T13:57:35;3.40;99.90
72865;DHT22;61000;48.120;11.548;2023-11-22T14:00:03;3.50;99.90
72865;DHT22;61000;48.120;11.548;2023-11-22T14:02:34;3.40;99.90
72865;DHT22;61000;48.120;11.548;2023-11-22T14:05:01;3.40;99.90
72865;DHT22;61000;48.120;11.548;2023-11-22T14:07:28;3.40;99.90
72865;DHT22;61000;48.120;11.548;2023-11-22T14:09:55;3.40;99.90
72865;DHT22;61000;48.120;11.548;2023-11-22T14:12:22;3.40;99.90
72865;DHT22;61000;48.120;11.548;2023-11-22T14:14:49;3.50;99.90
72865;DHT22;61000;48.120;11.548;2023-11-22T14:17:17;3.40;99.90
72865;DHT22;61000;48.120;11.548;2023-11-22T14:19:47;3.40;99.90
72865;DHT22;61000;48.120;11.548;2023-11-22T14:22:14;3.40;99.90
72865;DHT22;61000;48.120;11.548;2023-11-22T14:24:42;3.30;99.90
72865;DHT22;61000;48.120;11.548;2023-11-22T14:27:10;3.30;99.90
72865;DHT22;61000;48.120;11.548;2023-11-22T14:29:37;3.30;99.90
72865;DHT22;61000;48.120;11.548;2023-11-22T14:32:05;3.20;99.90
72865;DHT22;61000;48.120;11.548;2023-11-22T14:34:32;3.30;99.90
72865;DHT22;61000;48.120;11.548;2023-11-22T14:37:00;3.30;99.90
72865;DHT22;61000;48.120;11.548;2023-11-22T14:39:27;3.40;99.90
72865;DHT22;61000;48.120;11.548;2023-11-22T14:41:55;3.40;99.90
72865;DHT22;61000;48.120;11.548;2023-11-22T14:44:22;3.30;99.90
72865;DHT22;61000;48.120;11.548;2023-11-22T14:46:49;3.30;99.90
72865;DHT22;61000;48.120;11.548;2023-11-22T14:49:15;3.40;99.90
72865;DHT22;61000;48.120;11.548;2023-11-22T14:51:42;3.40;99.90
72865;DHT22;61000;48.120;11.548;2023-11-22T14:54:11;3.40;99.90
72865;DHT22;61000;48.120;11.548;2023-11-22T14:56:37;3.40;99.90
72865;DHT22;61000;48.120;11.548;2023-11-22T14:59:06;3.30;99.90
72865;DHT22;61000;48.120;11.548;2023-11-22T15:01:33;3.30;99.90
72865;DHT22;61000;48.120;11.548;2023-11-22T15:04:00;3.30;99.90
72865;DHT22;61000;48.120;11.548;2023-11-22T15:06:27;3.20;99.90
72865;DHT22;61000;48.120;11.548;2023-11-22T15:08:54;3.30;99.90
72865;DHT22;61000;48.120;11.548;2023-11-22T15:11:24;3.20;99.90
72865;DHT22;61000;48.120;11.548;2023-11-22T15:13:51;3.30;99.90
72865;DHT22;61000;48.120;11.548;2023-11-22T15:16:18;3.20;99.90
72865;DHT22;61000;48.120;11.548;2023-11-22T15:18:45;3.20;99.90
72865;DHT22;61000;48.120;11.548;2023-11-22T15:21:12;3.20;99.90
72865;DHT22;61000;48.120;11.548;2023-11-22T15:23:39;3.30;99.90
72865;DHT22;61000;48.120;11.548;2023-11-22T15:26:06;3.20;99.90
72865;DHT22;61000;48.120;11.548;2023-11-22T15:28:34;3.30;99.90
72865;DHT22;61000;48.120;11.548;2023-11-22T15:31:01;3.30;99.90
72865;DHT22;61000;48.120;11.548;2023-11-22T15:33:28;3.30;99.90
72865;DHT22;61000;48.120;11.548;2023-11-22T15:35:55;3.30;99.90